createdAt,value
2023-07-29T00:03:25.097Z,5.82
2023-07-29T00:08:27.953Z,3.03
2023-07-29T00:13:30.623Z,4.22
2023-07-29T00:18:33.538Z,4.82
2023-07-29T00:23:36.190Z,4.15
2023-07-29T00:28:38.869Z,4.60
2023-07-29T00:33:41.552Z,5.28
2023-07-29T00:38:44.221Z,4.38
2023-07-29T00:43:46.986Z,4.30
2023-07-29T00:48:50.160Z,7.00
2023-07-29T00:53:53.178Z,4.03
2023-07-29T00:59:00.195Z,3.42
2023-07-29T01:04:03.657Z,3.05
2023-07-29T01:09:10.496Z,5.78
2023-07-29T01:14:16.189Z,7.38
2023-07-29T01:19:52.654Z,5.05
2023-07-29T01:24:55.258Z,3.88
2023-07-29T01:29:58.518Z,6.10
2023-07-29T01:35:10.067Z,4.93
2023-07-29T01:40:12.995Z,6.30
2023-07-29T01:45:17.035Z,7.22
2023-07-29T01:50:20.991Z,6.63
2023-07-29T01:55:23.747Z,4.80
2023-07-29T02:00:26.401Z,5.78
2023-07-29T02:05:29.345Z,4.85
2023-07-29T02:10:32.080Z,6.00
2023-07-29T02:15:35.243Z,4.70
2023-07-29T02:20:40.228Z,5.97
2023-07-29T02:25:42.942Z,6.72
2023-07-29T02:30:46.382Z,6.57
2023-07-29T02:35:50.124Z,4.03
2023-07-29T02:40:52.772Z,3.78
2023-07-29T02:45:55.486Z,3.40
2023-07-29T02:50:58.154Z,3.92
2023-07-29T02:56:00.839Z,6.10
2023-07-29T03:01:07.969Z,5.72
2023-07-29T03:06:15.461Z,4.57
2023-07-29T03:11:18.464Z,7.38
2023-07-29T03:16:21.447Z,6.93
2023-07-29T03:21:30.469Z,8.23
2023-07-29T03:26:33.165Z,6.70
2023-07-29T03:31:36.053Z,6.13
2023-07-29T03:36:39.082Z,7.72
2023-07-29T03:41:41.859Z,3.90
2023-07-29T03:46:44.536Z,5.57
2023-07-29T03:51:47.595Z,4.75
2023-07-29T03:56:50.437Z,4.78
2023-07-29T04:01:53.057Z,3.60
2023-07-29T04:06:55.859Z,5.15
2023-07-29T04:11:58.618Z,2.70
2023-07-29T04:17:01.276Z,6.28
2023-07-29T04:22:04.049Z,4.88
2023-07-29T04:27:06.916Z,5.97
2023-07-29T04:32:09.554Z,2.75
2023-07-29T04:37:12.212Z,2.67
2023-07-29T04:42:14.937Z,4.95
2023-07-29T04:47:17.741Z,4.57
2023-07-29T04:52:21.143Z,5.32
2023-07-29T05:07:28.674Z,5.35
2023-07-29T05:12:31.427Z,5.63
2023-07-29T05:17:34.227Z,8.32
2023-07-29T05:22:36.862Z,5.65
2023-07-29T05:27:39.536Z,8.50
2023-07-29T05:32:42.444Z,6.30
2023-07-29T05:37:45.222Z,4.55
2023-07-29T05:42:49.237Z,6.25
2023-07-29T05:47:51.913Z,5.45
2023-07-29T05:52:55.144Z,7.45
2023-07-29T05:57:59.059Z,6.18
2023-07-29T06:03:02.168Z,3.90
2023-07-29T06:08:05.570Z,4.00
2023-07-29T06:13:08.361Z,3.83
2023-07-29T06:18:11.207Z,3.22
2023-07-29T06:23:14.501Z,2.70
2023-07-29T06:28:17.221Z,3.33
2023-07-29T06:33:20.169Z,4.30
2023-07-29T06:38:23.349Z,5.07
2023-07-29T06:43:25.984Z,4.72
2023-07-29T06:48:28.753Z,3.70
2023-07-29T06:53:33.807Z,4.68
2023-07-29T06:58:37.514Z,4.03
2023-07-29T07:03:40.348Z,4.85
2023-07-29T07:08:43.209Z,3.03
2023-07-29T07:13:45.838Z,3.33
2023-07-29T07:18:48.446Z,5.43
2023-07-29T07:23:51.921Z,4.32
2023-07-29T07:28:54.497Z,4.60
2023-07-29T07:33:57.126Z,6.07
2023-07-29T07:38:59.723Z,5.55
2023-07-29T07:44:02.576Z,7.07
2023-07-29T07:49:05.172Z,6.72
2023-07-29T07:54:08.034Z,7.25
2023-07-29T07:59:10.713Z,5.78
2023-07-29T08:04:13.490Z,8.45
2023-07-29T08:09:16.453Z,6.82
2023-07-29T08:14:19.062Z,8.85
2023-07-29T08:19:22.867Z,11.85
2023-07-29T08:24:25.609Z,15.88
2023-07-29T08:29:28.483Z,13.85
2023-07-29T08:34:31.201Z,14.98
2023-07-29T08:39:33.960Z,8.63
2023-07-29T08:44:46.968Z,7.95
2023-07-29T08:49:52.451Z,6.57
2023-07-29T08:54:55.233Z,7.72
2023-07-29T08:59:59.120Z,7.50
2023-07-29T09:05:03.199Z,7.45
2023-07-29T09:10:07.175Z,8.32
2023-07-29T09:15:10.646Z,8.10
2023-07-29T09:20:13.470Z,6.78
2023-07-29T09:25:17.792Z,7.38
2023-07-29T09:30:20.678Z,6.65
2023-07-29T09:35:25.239Z,6.55
2023-07-29T09:40:28.208Z,5.78
2023-07-29T09:45:31.052Z,8.07
2023-07-29T09:50:33.661Z,8.68
2023-07-29T09:55:36.472Z,9.10
2023-07-29T10:00:40.445Z,7.30
2023-07-29T10:05:43.390Z,6.68
2023-07-29T10:10:46.905Z,7.30
2023-07-29T10:15:50.257Z,6.78
2023-07-29T10:20:54.164Z,7.72
2023-07-29T10:26:07.121Z,3.45
2023-07-29T10:31:09.729Z,5.85
2023-07-29T10:36:13.572Z,8.15
2023-07-29T10:41:16.202Z,6.72
2023-07-29T10:46:23.894Z,5.05
2023-07-29T10:51:36.155Z,4.15
2023-07-29T10:56:42.978Z,5.72
2023-07-29T11:02:02.021Z,5.10
2023-07-29T11:07:11.865Z,7.18
2023-07-29T11:12:43.731Z,6.90
2023-07-29T11:17:57.854Z,6.15
2023-07-29T11:23:02.853Z,4.82
2023-07-29T11:28:07.417Z,6.38
2023-07-29T11:33:11.540Z,6.18
2023-07-29T11:38:19.039Z,6.97
2023-07-29T11:43:21.821Z,6.80
2023-07-29T11:48:35.007Z,6.90
2023-07-29T11:53:38.343Z,6.82
2023-07-29T11:58:41.106Z,5.90
2023-07-29T12:03:44.993Z,7.50
2023-07-29T12:08:48.233Z,7.93
2023-07-29T12:18:53.554Z,4.80
2023-07-29T12:23:58.184Z,4.57
2023-07-29T12:29:13.629Z,3.72
2023-07-29T12:34:23.217Z,5.25
2023-07-29T12:39:27.492Z,4.82
2023-07-29T12:44:35.003Z,5.38
2023-07-29T12:49:37.790Z,4.38
2023-07-29T12:54:41.607Z,3.58
2023-07-29T12:59:44.299Z,4.68
2023-07-29T13:04:47.247Z,6.70
2023-07-29T13:09:49.870Z,4.40
2023-07-29T13:14:52.538Z,5.30
2023-07-29T13:19:55.162Z,4.85
2023-07-29T13:24:57.891Z,6.00
2023-07-29T13:30:00.486Z,4.72
2023-07-29T13:35:03.204Z,7.25
2023-07-29T13:40:06.990Z,6.05
2023-07-29T13:45:10.371Z,4.15
2023-07-29T13:50:13.433Z,4.63
2023-07-29T13:55:16.180Z,5.88
2023-07-29T14:00:18.872Z,3.67
2023-07-29T14:05:21.608Z,6.88
2023-07-29T14:10:24.369Z,4.47
2023-07-29T14:15:27.029Z,5.53
2023-07-29T14:20:29.836Z,5.65
2023-07-29T14:25:32.443Z,5.93
2023-07-29T14:30:35.846Z,4.95
2023-07-29T14:35:38.537Z,5.18
2023-07-29T14:40:41.217Z,5.75
2023-07-29T14:45:43.950Z,4.95
2023-07-29T14:50:46.619Z,4.95
2023-07-29T14:55:49.276Z,4.10
2023-07-29T15:00:51.945Z,3.67
2023-07-29T15:05:54.605Z,3.90
2023-07-29T15:10:57.409Z,4.13
2023-07-29T15:16:00.104Z,5.45
2023-07-29T15:21:03.960Z,5.47
2023-07-29T15:26:06.605Z,4.00
2023-07-29T15:31:09.759Z,4.95
2023-07-29T15:36:12.368Z,3.70
2023-07-29T15:41:15.199Z,3.30
2023-07-29T15:46:17.882Z,3.25
2023-07-29T15:51:20.485Z,3.95
2023-07-29T15:56:23.145Z,3.50
2023-07-29T16:01:25.847Z,2.53
2023-07-29T16:06:28.584Z,3.25
2023-07-29T16:11:31.173Z,3.75
2023-07-29T16:16:33.903Z,4.03
2023-07-29T16:21:37.695Z,4.43
2023-07-29T16:26:40.488Z,3.70
2023-07-29T16:31:43.165Z,4.95
2023-07-29T16:36:45.884Z,3.42
2023-07-29T16:46:54.092Z,3.53
2023-07-29T16:51:56.827Z,3.50
2023-07-29T16:56:59.404Z,3.05
2023-07-29T17:02:02.533Z,3.85
2023-07-29T17:07:05.288Z,5.25
2023-07-29T17:12:08.099Z,3.67
2023-07-29T17:17:10.806Z,3.38
2023-07-29T17:22:13.360Z,5.82
2023-07-29T17:27:16.029Z,2.42
2023-07-29T17:32:18.648Z,3.60
2023-07-29T17:37:21.293Z,4.53
2023-07-29T17:42:24.081Z,3.38
2023-07-29T17:47:26.776Z,3.88
2023-07-29T17:52:29.473Z,4.78
2023-07-29T17:57:32.101Z,3.80
2023-07-29T18:02:34.905Z,2.90
2023-07-29T18:07:37.576Z,3.72
2023-07-29T18:12:41.006Z,3.42
2023-07-29T18:17:43.721Z,4.53
2023-07-29T18:22:49.754Z,3.33
2023-07-29T18:27:52.415Z,3.80
2023-07-29T18:32:55.514Z,2.88
2023-07-29T18:38:01.265Z,2.60
2023-07-29T18:43:03.974Z,3.75
2023-07-29T18:48:06.879Z,3.25
2023-07-29T18:53:09.671Z,2.33
2023-07-29T18:58:12.305Z,5.20
2023-07-29T19:03:15.739Z,5.00
2023-07-29T19:08:18.485Z,2.72
2023-07-29T19:13:22.253Z,4.22
2023-07-29T19:18:26.877Z,3.92
2023-07-29T19:23:29.544Z,3.25
2023-07-29T19:28:32.375Z,3.92
2023-07-29T19:33:35.177Z,6.80
2023-07-29T19:38:38.018Z,2.97
2023-07-29T19:43:40.755Z,5.18
2023-07-29T19:48:43.788Z,4.10
2023-07-29T19:53:46.419Z,5.05
2023-07-29T19:58:50.428Z,4.28
2023-07-29T20:03:54.387Z,4.60
2023-07-29T20:08:57.134Z,4.47
2023-07-29T20:13:59.871Z,3.28
2023-07-29T20:19:02.623Z,2.65
2023-07-29T20:24:06.215Z,1.80
2023-07-29T20:29:08.990Z,3.97
2023-07-29T20:34:11.630Z,3.50
2023-07-29T20:39:14.228Z,2.80
2023-07-29T20:44:16.909Z,4.55
2023-07-29T20:49:19.637Z,7.22
2023-07-29T20:54:22.302Z,4.28
2023-07-29T20:59:24.913Z,3.17
2023-07-29T21:04:27.539Z,2.95
2023-07-29T21:09:30.427Z,2.95
2023-07-29T21:14:33.219Z,3.28
2023-07-29T21:19:35.858Z,4.85
2023-07-29T21:24:38.710Z,4.03
2023-07-29T21:29:41.287Z,4.45
2023-07-29T21:34:44.758Z,6.78
2023-07-29T21:39:47.366Z,4.30
2023-07-29T21:44:49.926Z,4.32
2023-07-29T21:49:53.149Z,3.15
2023-07-29T21:54:55.728Z,2.42
2023-07-29T22:00:00.750Z,3.15
2023-07-29T22:12:09.589Z,4.25
2023-07-29T22:17:12.514Z,3.10
2023-07-29T22:22:15.087Z,2.42
2023-07-29T22:27:17.807Z,4.55
2023-07-29T22:32:20.491Z,6.03
2023-07-29T22:37:23.220Z,4.18
2023-07-29T22:42:25.912Z,3.15
2023-07-29T22:47:28.518Z,3.25
2023-07-29T22:52:31.344Z,5.55
2023-07-29T22:57:33.962Z,3.70
2023-07-29T23:02:36.733Z,3.55
2023-07-29T23:07:40.188Z,4.65
2023-07-29T23:12:42.934Z,3.20
2023-07-29T23:17:45.628Z,4.63
2023-07-29T23:22:48.261Z,3.45
2023-07-29T23:27:50.840Z,3.50
2023-07-29T23:32:53.594Z,3.00
2023-07-29T23:37:56.253Z,6.13
2023-07-29T23:42:58.891Z,5.97
2023-07-29T23:48:01.571Z,3.47
2023-07-29T23:53:04.261Z,3.55
2023-07-29T23:58:06.964Z,2.85
